sensor_id;sensor_type;location;lat;lon;timestamp;temperature;humidity
5086;DHT22;4715;51.660;7.082;2024-01-30T00:00:18;9.40;99.90
5086;DHT22;4715;51.660;7.082;2024-01-30T00:02:41;9.40;99.90
5086;DHT22;4715;51.660;7.082;2024-01-30T00:05:04;9.40;99.90
5086;DHT22;4715;51.660;7.082;2024-01-30T00:07:26;9.40;99.90
5086;DHT22;4715;51.660;7.082;2024-01-30T00:09:48;9.40;99.90
5086;DHT22;4715;51.660;7.082;2024-01-30T00:12:10;9.50;99.90
5086;DHT22;4715;51.660;7.082;2024-01-30T00:14:32;9.50;99.90
5086;DHT22;4715;51.660;7.082;2024-01-30T00:16:54;9.50;99.90
5086;DHT22;4715;51.660;7.082;2024-01-30T00:19:17;9.50;99.90
5086;DHT22;4715;51.660;7.082;2024-01-30T00:21:38;9.60;99.90
5086;DHT22;4715;51.660;7.082;2024-01-30T00:24:03;9.60;99.90
5086;DHT22;4715;51.660;7.082;2024-01-30T00:26:25;9.50;99.90
5086;DHT22;4715;51.660;7.082;2024-01-30T00:28:47;9.50;99.90
5086;DHT22;4715;51.660;7.082;2024-01-30T00:31:09;9.50;99.90
5086;DHT22;4715;51.660;7.082;2024-01-30T00:33:32;9.50;99.90
5086;DHT22;4715;51.660;7.082;2024-01-30T00:35:56;9.60;99.90
5086;DHT22;4715;51.660;7.082;2024-01-30T00:38:19;9.60;99.90
5086;DHT22;4715;51.660;7.082;2024-01-30T00:40:41;9.50;99.90
5086;DHT22;4715;51.660;7.082;2024-01-30T00:43:06;9.50;99.90
5086;DHT22;4715;51.660;7.082;2024-01-30T00:45:28;9.50;99.90
5086;DHT22;4715;51.660;7.082;2024-01-30T00:47:49;9.50;99.90
5086;DHT22;4715;51.660;7.082;2024-01-30T00:50:11;9.50;99.90
5086;DHT22;4715;51.660;7.082;2024-01-30T00:52:34;9.50;99.90
5086;DHT22;4715;51.660;7.082;2024-01-30T00:54:56;9.50;99.90
5086;DHT22;4715;51.660;7.082;2024-01-30T00:57:17;9.40;99.90
5086;DHT22;4715;51.660;7.082;2024-01-30T00:59:39;9.40;99.90
5086;DHT22;4715;51.660;7.082;2024-01-30T01:02:01;9.40;99.90
5086;DHT22;4715;51.660;7.082;2024-01-30T01:04:22;9.40;99.90
5086;DHT22;4715;51.660;7.082;2024-01-30T01:06:44;9.40;99.90
5086;DHT22;4715;51.660;7.082;2024-01-30T01:09:08;9.40;99.90
5086;DHT22;4715;51.660;7.082;2024-01-30T01:11:30;9.40;99.90
5086;DHT22;4715;51.660;7.082;2024-01-30T01:13:52;9.40;99.90
5086;DHT22;4715;51.660;7.082;2024-01-30T01:16:14;9.40;99.90
5086;DHT22;4715;51.660;7.082;2024-01-30T01:18:36;9.40;99.90
5086;DHT22;4715;51.660;7.082;2024-01-30T01:20:58;9.30;99.90
5086;DHT22;4715;51.660;7.082;2024-01-30T01:23:20;9.30;99.90
5086;DHT22;4715;51.660;7.082;2024-01-30T01:25:44;9.30;99.90
5086;DHT22;4715;51.660;7.082;2024-01-30T01:28:06;9.30;99.90
5086;DHT22;4715;51.660;7.082;2024-01-30T01:30:27;9.30;99.90
5086;DHT22;4715;51.660;7.082;2024-01-30T01:32:53;9.30;99.90
5086;DHT22;4715;51.660;7.082;2024-01-30T01:35:17;9.30;99.90
5086;DHT22;4715;51.660;7.082;2024-01-30T01:37:38;9.30;99.90
5086;DHT22;4715;51.660;7.082;2024-01-30T01:40:00;9.30;99.90
5086;DHT22;4715;51.660;7.082;2024-01-30T01:42:24;9.30;99.90
5086;DHT22;4715;51.660;7.082;2024-01-30T01:44:46;9.30;99.90
5086;DHT22;4715;51.660;7.082;2024-01-30T01:47:07;9.30;99.90
5086;DHT22;4715;51.660;7.082;2024-01-30T01:49:31;9.30;99.90
5086;DHT22;4715;51.660;7.082;2024-01-30T01:51:55;9.30;99.90
5086;DHT22;4715;51.660;7.082;2024-01-30T01:54:17;9.30;99.90
5086;DHT22;4715;51.660;7.082;2024-01-30T01:56:41;9.20;99.90
5086;DHT22;4715;51.660;7.082;2024-01-30T01:59:07;9.30;99.90
5086;DHT22;4715;51.660;7.082;2024-01-30T02:01:29;9.30;99.90
5086;DHT22;4715;51.660;7.082;2024-01-30T02:03:51;9.30;99.90
5086;DHT22;4715;51.660;7.082;2024-01-30T02:19:22;9.20;99.90
5086;DHT22;4715;51.660;7.082;2024-01-30T02:21:46;9.20;99.90
5086;DHT22;4715;51.660;7.082;2024-01-30T02:24:08;9.20;99.90
5086;DHT22;4715;51.660;7.082;2024-01-30T02:26:30;9.20;99.90
5086;DHT22;4715;51.660;7.082;2024-01-30T02:28:51;9.10;99.90
5086;DHT22;4715;51.660;7.082;2024-01-30T02:31:13;9.10;99.90
5086;DHT22;4715;51.660;7.082;2024-01-30T02:33:35;9.10;99.90
5086;DHT22;4715;51.660;7.082;2024-01-30T02:35:58;9.10;99.90
5086;DHT22;4715;51.660;7.082;2024-01-30T02:38:21;9.10;99.90
5086;DHT22;4715;51.660;7.082;2024-01-30T02:40:43;9.10;99.90
5086;DHT22;4715;51.660;7.082;2024-01-30T02:43:07;9.10;99.90
5086;DHT22;4715;51.660;7.082;2024-01-30T02:45:29;9.10;99.90
5086;DHT22;4715;51.660;7.082;2024-01-30T02:47:51;9.10;99.90
5086;DHT22;4715;51.660;7.082;2024-01-30T02:50:13;9.10;99.90
5086;DHT22;4715;51.660;7.082;2024-01-30T02:52:39;9.10;99.90
5086;DHT22;4715;51.660;7.082;2024-01-30T02:55:02;9.10;99.90
5086;DHT22;4715;51.660;7.082;2024-01-30T02:57:24;9.10;99.90
5086;DHT22;4715;51.660;7.082;2024-01-30T02:59:49;9.10;99.90
5086;DHT22;4715;51.660;7.082;2024-01-30T03:02:11;9.10;99.90
5086;DHT22;4715;51.660;7.082;2024-01-30T03:04:32;9.00;99.90
5086;DHT22;4715;51.660;7.082;2024-01-30T03:06:57;9.10;99.90
5086;DHT22;4715;51.660;7.082;2024-01-30T03:09:19;9.00;99.90
5086;DHT22;4715;51.660;7.082;2024-01-30T03:11:42;9.10;99.90
5086;DHT22;4715;51.660;7.082;2024-01-30T03:14:04;9.00;99.90
5086;DHT22;4715;51.660;7.082;2024-01-30T03:16:26;9.10;99.90
5086;DHT22;4715;51.660;7.082;2024-01-30T03:18:48;9.00;99.90
5086;DHT22;4715;51.660;7.082;2024-01-30T03:21:10;9.00;99.90
5086;DHT22;4715;51.660;7.082;2024-01-30T03:23:31;9.00;99.90
5086;DHT22;4715;51.660;7.082;2024-01-30T03:25:54;9.00;99.90
5086;DHT22;4715;51.660;7.082;2024-01-30T03:28:17;9.00;99.90
5086;DHT22;4715;51.660;7.082;2024-01-30T03:30:39;9.00;99.90
5086;DHT22;4715;51.660;7.082;2024-01-30T03:33:01;9.00;99.90
5086;DHT22;4715;51.660;7.082;2024-01-30T03:35:23;9.00;99.90
5086;DHT22;4715;51.660;7.082;2024-01-30T03:37:50;9.00;99.90
5086;DHT22;4715;51.660;7.082;2024-01-30T03:40:13;9.00;99.90
5086;DHT22;4715;51.660;7.082;2024-01-30T03:42:36;9.00;99.90
5086;DHT22;4715;51.660;7.082;2024-01-30T03:54:50;8.90;99.90
5086;DHT22;4715;51.660;7.082;2024-01-30T03:57:11;8.90;99.90
5086;DHT22;4715;51.660;7.082;2024-01-30T03:59:33;8.90;99.90
5086;DHT22;4715;51.660;7.082;2024-01-30T04:01:55;8.90;99.90
5086;DHT22;4715;51.660;7.082;2024-01-30T04:04:17;8.90;99.90
5086;DHT22;4715;51.660;7.082;2024-01-30T04:06:39;8.90;99.90
5086;DHT22;4715;51.660;7.082;2024-01-30T04:09:03;8.80;99.90
5086;DHT22;4715;51.660;7.082;2024-01-30T04:11:26;8.90;99.90
5086;DHT22;4715;51.660;7.082;2024-01-30T04:13:48;8.80;99.90
5086;DHT22;4715;51.660;7.082;2024-01-30T04:16:19;8.80;99.90
5086;DHT22;4715;51.660;7.082;2024-01-30T04:18:41;8.80;99.90
5086;DHT22;4715;51.660;7.082;2024-01-30T04:21:03;8.80;99.90
5086;DHT22;4715;51.660;7.082;2024-01-30T04:23:24;8.80;99.90
5086;DHT22;4715;51.660;7.082;2024-01-30T04:25:46;8.80;99.90
5086;DHT22;4715;51.660;7.082;2024-01-30T04:28:09;8.80;99.90
5086;DHT22;4715;51.660;7.082;2024-01-30T04:30:32;8.70;99.90
5086;DHT22;4715;51.660;7.082;2024-01-30T04:32:54;8.70;99.90
5086;DHT22;4715;51.660;7.082;2024-01-30T04:35:17;8.70;99.90
5086;DHT22;4715;51.660;7.082;2024-01-30T04:37:41;8.70;99.90
5086;DHT22;4715;51.660;7.082;2024-01-30T04:40:03;8.60;99.90
5086;DHT22;4715;51.660;7.082;2024-01-30T04:42:25;8.60;99.90
5086;DHT22;4715;51.660;7.082;2024-01-30T04:44:51;8.60;99.90
5086;DHT22;4715;51.660;7.082;2024-01-30T04:47:12;8.50;99.90
5086;DHT22;4715;51.660;7.082;2024-01-30T04:49:34;8.50;99.90
5086;DHT22;4715;51.660;7.082;2024-01-30T04:51:56;8.50;99.90
5086;DHT22;4715;51.660;7.082;2024-01-30T04:54:18;8.50;99.90
5086;DHT22;4715;51.660;7.082;2024-01-30T04:56:40;8.40;99.90
5086;DHT22;4715;51.660;7.082;2024-01-30T04:59:02;8.40;99.90
5086;DHT22;4715;51.660;7.082;2024-01-30T05:01:26;8.40;99.90
5086;DHT22;4715;51.660;7.082;2024-01-30T05:03:47;8.40;99.90
5086;DHT22;4715;51.660;7.082;2024-01-30T05:06:09;8.40;99.90
5086;DHT22;4715;51.660;7.082;2024-01-30T05:08:31;8.40;99.90
5086;DHT22;4715;51.660;7.082;2024-01-30T05:10:53;8.40;99.90
5086;DHT22;4715;51.660;7.082;2024-01-30T05:13:15;8.50;99.90
5086;DHT22;4715;51.660;7.082;2024-01-30T05:15:36;8.50;99.90
5086;DHT22;4715;51.660;7.082;2024-01-30T05:18:00;8.50;99.90
5086;DHT22;4715;51.660;7.082;2024-01-30T05:20:22;8.50;99.90
5086;DHT22;4715;51.660;7.082;2024-01-30T05:22:44;8.50;99.90
5086;DHT22;4715;51.660;7.082;2024-01-30T05:25:06;8.40;99.90
5086;DHT22;4715;51.660;7.082;2024-01-30T05:27:28;8.50;99.90
5086;DHT22;4715;51.660;7.082;2024-01-30T05:29:51;8.50;99.90
5086;DHT22;4715;51.660;7.082;2024-01-30T05:32:15;8.40;99.90
5086;DHT22;4715;51.660;7.082;2024-01-30T05:34:39;8.50;99.90
5086;DHT22;4715;51.660;7.082;2024-01-30T05:37:01;8.50;99.90
5086;DHT22;4715;51.660;7.082;2024-01-30T05:39:23;8.50;99.90
5086;DHT22;4715;51.660;7.082;2024-01-30T05:41:45;8.50;99.90
5086;DHT22;4715;51.660;7.082;2024-01-30T05:44:08;8.50;99.90
5086;DHT22;4715;51.660;7.082;2024-01-30T05:46:30;8.50;99.90
5086;DHT22;4715;51.660;7.082;2024-01-30T05:48:52;8.50;99.90
5086;DHT22;4715;51.660;7.082;2024-01-30T05:51:15;8.60;99.90
5086;DHT22;4715;51.660;7.082;2024-01-30T05:53:37;8.60;99.90
5086;DHT22;4715;51.660;7.082;2024-01-30T05:55:59;8.60;99.90
5086;DHT22;4715;51.660;7.082;2024-01-30T05:58:21;8.70;99.90
5086;DHT22;4715;51.660;7.082;2024-01-30T06:00:43;8.70;99.90
5086;DHT22;4715;51.660;7.082;2024-01-30T06:03:05;8.70;99.90
5086;DHT22;4715;51.660;7.082;2024-01-30T06:05:31;8.70;99.90
5086;DHT22;4715;51.660;7.082;2024-01-30T06:07:55;8.80;99.90
5086;DHT22;4715;51.660;7.082;2024-01-30T06:10:17;8.80;99.90
5086;DHT22;4715;51.660;7.082;2024-01-30T06:12:40;8.90;99.90
5086;DHT22;4715;51.660;7.082;2024-01-30T06:15:01;8.90;99.90
5086;DHT22;4715;51.660;7.082;2024-01-30T06:17:24;8.90;99.90
5086;DHT22;4715;51.660;7.082;2024-01-30T06:19:46;8.90;99.90
5086;DHT22;4715;51.660;7.082;2024-01-30T06:22:08;8.90;99.90
5086;DHT22;4715;51.660;7.082;2024-01-30T06:24:31;9.00;99.90
5086;DHT22;4715;51.660;7.082;2024-01-30T06:26:54;9.00;99.90
5086;DHT22;4715;51.660;7.082;2024-01-30T06:29:17;9.00;99.90
5086;DHT22;4715;51.660;7.082;2024-01-30T06:31:41;9.00;99.90
5086;DHT22;4715;51.660;7.082;2024-01-30T06:34:03;9.00;99.90
5086;DHT22;4715;51.660;7.082;2024-01-30T06:36:26;9.00;99.90
5086;DHT22;4715;51.660;7.082;2024-01-30T06:38:47;9.00;99.90
5086;DHT22;4715;51.660;7.082;2024-01-30T06:41:11;9.00;99.90
5086;DHT22;4715;51.660;7.082;2024-01-30T06:43:33;9.00;99.90
5086;DHT22;4715;51.660;7.082;2024-01-30T06:45:58;9.00;99.90
5086;DHT22;4715;51.660;7.082;2024-01-30T06:48:20;9.00;99.90
5086;DHT22;4715;51.660;7.082;2024-01-30T06:50:42;9.00;99.90
5086;DHT22;4715;51.660;7.082;2024-01-30T06:53:04;9.00;99.90
5086;DHT22;4715;51.660;7.082;2024-01-30T06:55:25;9.00;99.90
5086;DHT22;4715;51.660;7.082;2024-01-30T06:57:49;8.90;99.90
5086;DHT22;4715;51.660;7.082;2024-01-30T07:00:11;8.90;99.90
5086;DHT22;4715;51.660;7.082;2024-01-30T07:02:34;8.90;99.90
5086;DHT22;4715;51.660;7.082;2024-01-30T07:04:57;8.90;99.90
5086;DHT22;4715;51.660;7.082;2024-01-30T07:07:18;8.90;99.90
5086;DHT22;4715;51.660;7.082;2024-01-30T07:09:41;8.80;99.90
5086;DHT22;4715;51.660;7.082;2024-01-30T07:12:03;8.80;99.90
5086;DHT22;4715;51.660;7.082;2024-01-30T07:14:27;8.80;99.90
5086;DHT22;4715;51.660;7.082;2024-01-30T07:16:49;8.80;99.90
5086;DHT22;4715;51.660;7.082;2024-01-30T07:19:12;8.80;99.90
5086;DHT22;4715;51.660;7.082;2024-01-30T07:21:36;8.90;99.90
5086;DHT22;4715;51.660;7.082;2024-01-30T07:23:57;8.80;99.90
5086;DHT22;4715;51.660;7.082;2024-01-30T07:26:19;8.90;99.90
5086;DHT22;4715;51.660;7.082;2024-01-30T07:28:42;8.90;99.90
5086;DHT22;4715;51.660;7.082;2024-01-30T07:31:06;9.00;99.90
5086;DHT22;4715;51.660;7.082;2024-01-30T07:33:28;9.00;99.90
5086;DHT22;4715;51.660;7.082;2024-01-30T07:35:52;9.00;99.90
5086;DHT22;4715;51.660;7.082;2024-01-30T07:38:14;9.10;99.90
5086;DHT22;4715;51.660;7.082;2024-01-30T07:40:36;9.10;99.90
5086;DHT22;4715;51.660;7.082;2024-01-30T07:42:58;9.10;99.90
5086;DHT22;4715;51.660;7.082;2024-01-30T07:45:22;9.10;99.90
5086;DHT22;4715;51.660;7.082;2024-01-30T07:47:48;9.20;99.90
5086;DHT22;4715;51.660;7.082;2024-01-30T07:50:10;9.20;99.90
5086;DHT22;4715;51.660;7.082;2024-01-30T07:52:32;9.20;99.90
5086;DHT22;4715;51.660;7.082;2024-01-30T07:54:54;9.20;99.90
5086;DHT22;4715;51.660;7.082;2024-01-30T08:03:52;9.20;99.90
5086;DHT22;4715;51.660;7.082;2024-01-30T08:06:17;9.20;99.90
5086;DHT22;4715;51.660;7.082;2024-01-30T08:08:40;9.20;99.90
5086;DHT22;4715;51.660;7.082;2024-01-30T08:11:01;9.20;99.90
5086;DHT22;4715;51.660;7.082;2024-01-30T08:13:23;9.30;99.90
5086;DHT22;4715;51.660;7.082;2024-01-30T08:15:45;9.30;99.90
5086;DHT22;4715;51.660;7.082;2024-01-30T08:18:07;9.30;99.90
5086;DHT22;4715;51.660;7.082;2024-01-30T08:20:30;9.40;99.90
5086;DHT22;4715;51.660;7.082;2024-01-30T08:22:55;9.40;99.90
5086;DHT22;4715;51.660;7.082;2024-01-30T08:25:17;9.50;99.90
5086;DHT22;4715;51.660;7.082;2024-01-30T08:27:40;9.60;99.90
5086;DHT22;4715;51.660;7.082;2024-01-30T08:30:05;9.60;99.90
5086;DHT22;4715;51.660;7.082;2024-01-30T08:32:27;9.70;99.90
5086;DHT22;4715;51.660;7.082;2024-01-30T08:34:49;9.70;99.90
5086;DHT22;4715;51.660;7.082;2024-01-30T08:37:12;9.80;99.90
5086;DHT22;4715;51.660;7.082;2024-01-30T08:39:37;9.90;99.90
5086;DHT22;4715;51.660;7.082;2024-01-30T08:41:59;9.90;99.90
5086;DHT22;4715;51.660;7.082;2024-01-30T08:44:21;9.90;99.90
5086;DHT22;4715;51.660;7.082;2024-01-30T08:46:43;10.00;99.90
5086;DHT22;4715;51.660;7.082;2024-01-30T08:49:05;10.00;99.90
5086;DHT22;4715;51.660;7.082;2024-01-30T08:51:27;10.10;99.90
5086;DHT22;4715;51.660;7.082;2024-01-30T08:53:52;10.20;99.90
5086;DHT22;4715;51.660;7.082;2024-01-30T08:56:15;10.30;99.90
5086;DHT22;4715;51.660;7.082;2024-01-30T08:58:37;10.20;99.90
5086;DHT22;4715;51.660;7.082;2024-01-30T09:00:58;10.30;99.90
5086;DHT22;4715;51.660;7.082;2024-01-30T09:03:20;10.30;99.90
5086;DHT22;4715;51.660;7.082;2024-01-30T09:05:45;10.40;99.90
5086;DHT22;4715;51.660;7.082;2024-01-30T09:08:09;10.40;99.90
5086;DHT22;4715;51.660;7.082;2024-01-30T09:10:32;10.40;99.90
5086;DHT22;4715;51.660;7.082;2024-01-30T09:12:54;10.50;99.90
5086;DHT22;4715;51.660;7.082;2024-01-30T09:15:16;10.60;99.90
5086;DHT22;4715;51.660;7.082;2024-01-30T09:17:38;10.60;99.90
5086;DHT22;4715;51.660;7.082;2024-01-30T09:20:02;10.60;99.90
5086;DHT22;4715;51.660;7.082;2024-01-30T09:22:24;10.70;99.90
5086;DHT22;4715;51.660;7.082;2024-01-30T09:24:47;10.70;99.90
5086;DHT22;4715;51.660;7.082;2024-01-30T09:27:10;10.70;99.90
5086;DHT22;4715;51.660;7.082;2024-01-30T09:29:32;10.70;99.90
5086;DHT22;4715;51.660;7.082;2024-01-30T09:31:54;10.80;99.90
5086;DHT22;4715;51.660;7.082;2024-01-30T09:34:16;10.90;99.90
5086;DHT22;4715;51.660;7.082;2024-01-30T09:36:38;10.90;99.90
5086;DHT22;4715;51.660;7.082;2024-01-30T09:39:01;10.90;99.90
5086;DHT22;4715;51.660;7.082;2024-01-30T09:41:24;11.00;99.90
5086;DHT22;4715;51.660;7.082;2024-01-30T09:43:48;11.00;99.90
5086;DHT22;4715;51.660;7.082;2024-01-30T09:46:17;11.10;99.90
5086;DHT22;4715;51.660;7.082;2024-01-30T09:48:40;11.10;99.90
5086;DHT22;4715;51.660;7.082;2024-01-30T09:51:03;11.20;99.90
5086;DHT22;4715;51.660;7.082;2024-01-30T09:53:26;11.20;99.90
5086;DHT22;4715;51.660;7.082;2024-01-30T09:55:50;11.20;99.90
5086;DHT22;4715;51.660;7.082;2024-01-30T09:58:12;11.30;99.90
5086;DHT22;4715;51.660;7.082;2024-01-30T10:00:35;11.30;99.90
5086;DHT22;4715;51.660;7.082;2024-01-30T10:02:57;11.40;99.90
5086;DHT22;4715;51.660;7.082;2024-01-30T10:05:19;11.40;99.90
5086;DHT22;4715;51.660;7.082;2024-01-30T10:07:52;11.50;99.90
5086;DHT22;4715;51.660;7.082;2024-01-30T10:10:14;11.50;99.90
5086;DHT22;4715;51.660;7.082;2024-01-30T10:12:35;11.60;99.90
5086;DHT22;4715;51.660;7.082;2024-01-30T10:14:57;11.60;99.90
5086;DHT22;4715;51.660;7.082;2024-01-30T10:17:21;11.70;99.90
5086;DHT22;4715;51.660;7.082;2024-01-30T10:19:43;11.80;99.90
5086;DHT22;4715;51.660;7.082;2024-01-30T10:22:05;11.90;99.90
5086;DHT22;4715;51.660;7.082;2024-01-30T10:24:27;11.90;99.90
5086;DHT22;4715;51.660;7.082;2024-01-30T10:26:49;12.00;99.90
5086;DHT22;4715;51.660;7.082;2024-01-30T10:29:12;12.10;99.90
5086;DHT22;4715;51.660;7.082;2024-01-30T10:31:34;12.20;99.90
5086;DHT22;4715;51.660;7.082;2024-01-30T10:33:58;12.30;99.90
5086;DHT22;4715;51.660;7.082;2024-01-30T10:36:26;12.40;99.90
5086;DHT22;4715;51.660;7.082;2024-01-30T10:38:51;12.50;99.90
5086;DHT22;4715;51.660;7.082;2024-01-30T10:41:13;12.50;99.90
5086;DHT22;4715;51.660;7.082;2024-01-30T10:43:41;12.60;99.90
5086;DHT22;4715;51.660;7.082;2024-01-30T10:46:09;12.60;99.90
5086;DHT22;4715;51.660;7.082;2024-01-30T10:48:32;12.60;99.90
5086;DHT22;4715;51.660;7.082;2024-01-30T10:51:02;12.60;99.90
5086;DHT22;4715;51.660;7.082;2024-01-30T10:53:25;12.60;99.90
5086;DHT22;4715;51.660;7.082;2024-01-30T10:55:48;12.50;99.90
5086;DHT22;4715;51.660;7.082;2024-01-30T10:58:12;12.50;99.90
5086;DHT22;4715;51.660;7.082;2024-01-30T11:00:35;12.50;99.90
5086;DHT22;4715;51.660;7.082;2024-01-30T11:02:57;12.50;99.90
5086;DHT22;4715;51.660;7.082;2024-01-30T11:05:26;12.40;99.90
5086;DHT22;4715;51.660;7.082;2024-01-30T11:07:51;12.40;99.90
5086;DHT22;4715;51.660;7.082;2024-01-30T11:10:13;12.40;99.90
5086;DHT22;4715;51.660;7.082;2024-01-30T11:12:39;12.40;99.90
5086;DHT22;4715;51.660;7.082;2024-01-30T11:15:08;12.40;99.90
5086;DHT22;4715;51.660;7.082;2024-01-30T11:17:40;12.40;99.90
5086;DHT22;4715;51.660;7.082;2024-01-30T11:20:02;12.40;99.90
5086;DHT22;4715;51.660;7.082;2024-01-30T11:22:25;12.30;99.90
5086;DHT22;4715;51.660;7.082;2024-01-30T11:24:51;12.30;99.90
5086;DHT22;4715;51.660;7.082;2024-01-30T11:27:13;12.30;99.90
5086;DHT22;4715;51.660;7.082;2024-01-30T11:29:35;12.30;99.90
5086;DHT22;4715;51.660;7.082;2024-01-30T11:31:58;12.30;99.90
5086;DHT22;4715;51.660;7.082;2024-01-30T11:34:20;12.30;99.90
5086;DHT22;4715;51.660;7.082;2024-01-30T11:36:43;12.30;99.90
5086;DHT22;4715;51.660;7.082;2024-01-30T11:39:07;12.30;99.90
5086;DHT22;4715;51.660;7.082;2024-01-30T11:41:31;12.30;99.90
5086;DHT22;4715;51.660;7.082;2024-01-30T11:43:54;12.30;99.90
5086;DHT22;4715;51.660;7.082;2024-01-30T11:46:16;12.20;99.90
5086;DHT22;4715;51.660;7.082;2024-01-30T11:48:40;12.20;99.90
5086;DHT22;4715;51.660;7.082;2024-01-30T11:51:02;12.20;99.90
5086;DHT22;4715;51.660;7.082;2024-01-30T11:53:27;12.20;99.90
5086;DHT22;4715;51.660;7.082;2024-01-30T11:55:53;12.20;99.90
5086;DHT22;4715;51.660;7.082;2024-01-30T11:58:17;12.20;99.90
5086;DHT22;4715;51.660;7.082;2024-01-30T12:00:39;12.20;99.90
5086;DHT22;4715;51.660;7.082;2024-01-30T12:03:00;12.20;99.90
5086;DHT22;4715;51.660;7.082;2024-01-30T12:05:24;12.20;99.90
5086;DHT22;4715;51.660;7.082;2024-01-30T12:07:46;12.20;99.90
5086;DHT22;4715;51.660;7.082;2024-01-30T12:10:09;12.20;99.90
5086;DHT22;4715;51.660;7.082;2024-01-30T12:12:33;12.20;99.90
5086;DHT22;4715;51.660;7.082;2024-01-30T12:14:57;12.20;99.90
5086;DHT22;4715;51.660;7.082;2024-01-30T12:17:27;12.20;99.90
5086;DHT22;4715;51.660;7.082;2024-01-30T12:19:49;12.30;99.90
5086;DHT22;4715;51.660;7.082;2024-01-30T12:22:11;12.20;99.90
5086;DHT22;4715;51.660;7.082;2024-01-30T12:24:33;12.20;99.90
5086;DHT22;4715;51.660;7.082;2024-01-30T12:26:57;12.20;99.90
5086;DHT22;4715;51.660;7.082;2024-01-30T12:29:20;12.20;99.90
5086;DHT22;4715;51.660;7.082;2024-01-30T12:31:44;12.20;99.90
5086;DHT22;4715;51.660;7.082;2024-01-30T12:34:05;12.20;99.90
5086;DHT22;4715;51.660;7.082;2024-01-30T12:36:28;12.20;99.90
5086;DHT22;4715;51.660;7.082;2024-01-30T12:38:52;12.30;99.90
5086;DHT22;4715;51.660;7.082;2024-01-30T12:41:14;12.30;99.90
5086;DHT22;4715;51.660;7.082;2024-01-30T12:43:36;12.30;99.90
5086;DHT22;4715;51.660;7.082;2024-01-30T12:45:58;12.30;99.90
5086;DHT22;4715;51.660;7.082;2024-01-30T12:48:22;12.30;99.90
5086;DHT22;4715;51.660;7.082;2024-01-30T12:50:45;12.30;99.90
5086;DHT22;4715;51.660;7.082;2024-01-30T12:53:07;12.30;99.90
5086;DHT22;4715;51.660;7.082;2024-01-30T12:55:29;12.40;99.90
5086;DHT22;4715;51.660;7.082;2024-01-30T12:57:51;12.40;99.90
5086;DHT22;4715;51.660;7.082;2024-01-30T13:00:13;12.40;99.90
5086;DHT22;4715;51.660;7.082;2024-01-30T13:02:38;12.30;99.90
5086;DHT22;4715;51.660;7.082;2024-01-30T13:05:03;12.30;99.90
5086;DHT22;4715;51.660;7.082;2024-01-30T13:07:25;12.30;99.90
5086;DHT22;4715;51.660;7.082;2024-01-30T13:09:50;12.30;99.90
5086;DHT22;4715;51.660;7.082;2024-01-30T13:12:12;12.30;99.90
5086;DHT22;4715;51.660;7.082;2024-01-30T13:14:33;12.30;99.90
5086;DHT22;4715;51.660;7.082;2024-01-30T13:16:55;12.30;99.90
5086;DHT22;4715;51.660;7.082;2024-01-30T13:19:17;12.30;99.90
5086;DHT22;4715;51.660;7.082;2024-01-30T13:21:40;12.30;99.90
5086;DHT22;4715;51.660;7.082;2024-01-30T13:24:03;12.30;99.90
5086;DHT22;4715;51.660;7.082;2024-01-30T13:26:25;12.30;99.90
5086;DHT22;4715;51.660;7.082;2024-01-30T13:28:48;12.30;99.90
5086;DHT22;4715;51.660;7.082;2024-01-30T13:31:11;12.30;99.90
5086;DHT22;4715;51.660;7.082;2024-01-30T13:33:35;12.30;99.90
5086;DHT22;4715;51.660;7.082;2024-01-30T13:35:57;12.30;99.90
5086;DHT22;4715;51.660;7.082;2024-01-30T13:38:20;12.30;99.90
5086;DHT22;4715;51.660;7.082;2024-01-30T13:40:42;12.30;99.90
5086;DHT22;4715;51.660;7.082;2024-01-30T13:43:04;12.30;99.90
5086;DHT22;4715;51.660;7.082;2024-01-30T13:45:26;12.30;99.90
5086;DHT22;4715;51.660;7.082;2024-01-30T13:47:48;12.30;99.90
5086;DHT22;4715;51.660;7.082;2024-01-30T13:50:10;12.20;99.90
5086;DHT22;4715;51.660;7.082;2024-01-30T13:52:35;12.30;99.90
5086;DHT22;4715;51.660;7.082;2024-01-30T13:55:01;12.20;99.90
5086;DHT22;4715;51.660;7.082;2024-01-30T13:57:23;12.20;99.90
5086;DHT22;4715;51.660;7.082;2024-01-30T13:59:45;12.20;99.90
5086;DHT22;4715;51.660;7.082;2024-01-30T14:02:07;12.20;99.90
5086;DHT22;4715;51.660;7.082;2024-01-30T14:04:30;12.20;99.90
5086;DHT22;4715;51.660;7.082;2024-01-30T14:06:54;12.20;99.90
5086;DHT22;4715;51.660;7.082;2024-01-30T14:09:16;12.20;99.90
5086;DHT22;4715;51.660;7.082;2024-01-30T14:11:41;12.20;99.90
5086;DHT22;4715;51.660;7.082;2024-01-30T14:14:06;12.20;99.90
5086;DHT22;4715;51.660;7.082;2024-01-30T14:16:28;12.20;99.90
5086;DHT22;4715;51.660;7.082;2024-01-30T14:18:51;12.20;99.90
5086;DHT22;4715;51.660;7.082;2024-01-30T14:21:13;12.20;99.90
5086;DHT22;4715;51.660;7.082;2024-01-30T14:23:35;12.20;99.90
5086;DHT22;4715;51.660;7.082;2024-01-30T14:25:56;12.30;99.90
5086;DHT22;4715;51.660;7.082;2024-01-30T14:28:21;12.30;99.90
5086;DHT22;4715;51.660;7.082;2024-01-30T14:30:45;12.40;99.90
5086;DHT22;4715;51.660;7.082;2024-01-30T14:33:07;12.50;99.90
5086;DHT22;4715;51.660;7.082;2024-01-30T14:35:29;12.60;99.90
5086;DHT22;4715;51.660;7.082;2024-01-30T14:37:52;12.60;99.90
5086;DHT22;4715;51.660;7.082;2024-01-30T14:40:13;12.60;99.90
5086;DHT22;4715;51.660;7.082;2024-01-30T14:42:38;12.60;99.90
5086;DHT22;4715;51.660;7.082;2024-01-30T14:45:03;12.60;99.90
5086;DHT22;4715;51.660;7.082;2024-01-30T14:47:26;12.60;99.90
5086;DHT22;4715;51.660;7.082;2024-01-30T14:49:47;12.60;99.90
5086;DHT22;4715;51.660;7.082;2024-01-30T14:52:12;12.50;99.90
5086;DHT22;4715;51.660;7.082;2024-01-30T14:54:34;12.50;99.90
5086;DHT22;4715;51.660;7.082;2024-01-30T14:56:57;12.50;99.90
5086;DHT22;4715;51.660;7.082;2024-01-30T14:59:22;12.40;99.90
5086;DHT22;4715;51.660;7.082;2024-01-30T15:01:46;12.40;99.90
5086;DHT22;4715;51.660;7.082;2024-01-30T15:04:09;12.30;99.90
5086;DHT22;4715;51.660;7.082;2024-01-30T15:06:32;12.20;99.90
5086;DHT22;4715;51.660;7.082;2024-01-30T15:08:54;12.20;99.90
5086;DHT22;4715;51.660;7.082;2024-01-30T15:11:17;12.10;99.90
5086;DHT22;4715;51.660;7.082;2024-01-30T15:13:40;12.10;99.90
5086;DHT22;4715;51.660;7.082;2024-01-30T15:16:03;12.00;99.90
5086;DHT22;4715;51.660;7.082;2024-01-30T15:18:27;12.00;99.90
5086;DHT22;4715;51.660;7.082;2024-01-30T15:20:49;12.00;99.90
5086;DHT22;4715;51.660;7.082;2024-01-30T15:23:12;11.90;99.90
5086;DHT22;4715;51.660;7.082;2024-01-30T15:25:34;11.90;99.90
5086;DHT22;4715;51.660;7.082;2024-01-30T15:27:56;11.90;99.90
5086;DHT22;4715;51.660;7.082;2024-01-30T15:30:19;11.90;99.90
5086;DHT22;4715;51.660;7.082;2024-01-30T15:32:41;11.90;99.90
5086;DHT22;4715;51.660;7.082;2024-01-30T15:35:06;11.80;99.90
5086;DHT22;4715;51.660;7.082;2024-01-30T15:37:29;11.80;99.90
5086;DHT22;4715;51.660;7.082;2024-01-30T15:39:50;11.70;99.90
5086;DHT22;4715;51.660;7.082;2024-01-30T15:42:13;11.60;99.90
5086;DHT22;4715;51.660;7.082;2024-01-30T15:44:35;11.60;99.90
5086;DHT22;4715;51.660;7.082;2024-01-30T15:47:00;11.50;99.90
5086;DHT22;4715;51.660;7.082;2024-01-30T15:49:24;11.40;99.90
5086;DHT22;4715;51.660;7.082;2024-01-30T15:51:48;11.40;99.90
5086;DHT22;4715;51.660;7.082;2024-01-30T15:54:10;11.50;99.90
5086;DHT22;4715;51.660;7.082;2024-01-30T15:56:32;11.50;99.90
5086;DHT22;4715;51.660;7.082;2024-01-30T15:58:54;11.40;99.90
5086;DHT22;4715;51.660;7.082;2024-01-30T16:01:16;11.40;99.90
5086;DHT22;4715;51.660;7.082;2024-01-30T16:03:38;11.30;99.90
5086;DHT22;4715;51.660;7.082;2024-01-30T16:06:00;11.30;99.90
5086;DHT22;4715;51.660;7.082;2024-01-30T16:08:24;11.20;99.90